createdAt,value
2023-04-16T00:02:06.076Z,99701.47
2023-04-16T00:05:08.704Z,99684.72
2023-04-16T00:08:10.452Z,99686.50
2023-04-16T00:11:12.379Z,99682.06
2023-04-16T00:14:14.139Z,99688.25
2023-04-16T00:17:17.393Z,99684.72
2023-04-16T00:20:19.416Z,99684.72
2023-04-16T00:23:21.053Z,99684.69
2023-04-16T00:26:22.800Z,99676.78
2023-04-16T00:29:24.734Z,99671.47
2023-04-16T00:32:27.998Z,99667.97
2023-04-16T00:35:29.669Z,99662.66
2023-04-16T00:38:31.577Z,99667.06
2023-04-16T00:41:33.233Z,99679.38
2023-04-16T00:44:35.109Z,99672.28
2023-04-16T00:47:38.347Z,99677.59
2023-04-16T00:50:40.042Z,99677.53
2023-04-16T00:53:42.014Z,99691.56
2023-04-16T00:56:44.498Z,99694.16
2023-04-16T00:59:46.437Z,99698.56
2023-04-16T01:02:49.743Z,99696.75
2023-04-16T01:05:51.479Z,99701.16
2023-04-16T01:08:53.169Z,99702.03
2023-04-16T01:11:55.109Z,99700.25
2023-04-16T01:14:57.262Z,99702.00
2023-04-16T01:18:00.395Z,99714.28
2023-04-16T01:21:04.096Z,99706.34
2023-04-16T01:24:06.207Z,99714.22
2023-04-16T01:27:07.936Z,99708.91
2023-04-16T01:30:10.163Z,99716.72
2023-04-16T01:33:12.499Z,99714.09
2023-04-16T01:36:15.611Z,99716.66
2023-04-16T01:39:17.295Z,99717.53
2023-04-16T01:42:19.070Z,99713.97
2023-04-16T01:45:20.829Z,99717.44
2023-04-16T01:48:22.569Z,99709.53
2023-04-16T01:51:25.606Z,99720.06
2023-04-16T01:54:27.474Z,99708.53
2023-04-16T01:57:29.397Z,99715.56
2023-04-16T02:00:31.116Z,99721.66
2023-04-16T02:03:33.333Z,99724.28
2023-04-16T02:06:36.465Z,99724.19
2023-04-16T02:09:40.209Z,99720.66
2023-04-16T02:12:41.958Z,99714.50
2023-04-16T02:15:45.911Z,99710.09
2023-04-16T02:18:47.319Z,99711.03
2023-04-16T02:21:51.555Z,99715.41
2023-04-16T02:24:53.152Z,99718.03
2023-04-16T02:27:55.167Z,99713.72
2023-04-16T02:30:56.789Z,99715.47
2023-04-16T02:33:58.697Z,99704.13
2023-04-16T02:37:01.972Z,99703.22
2023-04-16T02:40:04.068Z,99704.09
2023-04-16T02:43:05.711Z,99712.00
2023-04-16T02:46:07.663Z,99702.44
2023-04-16T02:49:09.823Z,99705.94
2023-04-16T02:52:15.085Z,99705.06
2023-04-16T02:55:17.573Z,99704.19
2023-04-16T02:58:19.516Z,99698.94
2023-04-16T03:01:21.178Z,99708.59
2023-04-16T03:04:22.921Z,99725.34
2023-04-16T03:07:25.961Z,99723.53
2023-04-16T03:10:27.586Z,99727.00
2023-04-16T03:13:29.248Z,99720.88
2023-04-16T03:16:31.196Z,99727.03
2023-04-16T03:19:33.115Z,99738.38
2023-04-16T03:22:36.062Z,99746.31
2023-04-16T03:25:37.932Z,99749.88
2023-04-16T03:28:39.555Z,99750.69
2023-04-16T03:31:41.548Z,99750.69
2023-04-16T03:34:43.498Z,99754.97
2023-04-16T03:37:46.802Z,99752.31
2023-04-16T03:40:48.406Z,99763.81
2023-04-16T03:43:50.521Z,99763.91
2023-04-16T03:46:52.463Z,99764.72
2023-04-16T03:49:54.755Z,99768.31
2023-04-16T03:52:58.272Z,99764.00
2023-04-16T03:56:00.284Z,99761.34
2023-04-16T03:59:02.044Z,99772.88
2023-04-16T04:02:03.836Z,99759.72
2023-04-16T04:05:05.969Z,99764.19
2023-04-16T04:08:09.657Z,99761.59
2023-04-16T04:11:11.311Z,99765.16
2023-04-16T04:14:12.997Z,99760.84
2023-04-16T04:17:14.976Z,99781.97
2023-04-16T04:20:16.850Z,99784.66
2023-04-16T04:23:19.894Z,99779.38
2023-04-16T04:26:21.873Z,99778.56
2023-04-16T04:29:23.559Z,99777.72
2023-04-16T04:32:25.535Z,99781.22
2023-04-16T04:35:27.288Z,99782.16
2023-04-16T04:38:30.333Z,99775.16
2023-04-16T04:41:32.087Z,99782.19
2023-04-16T04:44:34.015Z,99783.94
2023-04-16T04:47:35.720Z,99788.38
2023-04-16T04:50:37.437Z,99786.63
2023-04-16T04:53:40.447Z,99780.50
2023-04-16T04:56:42.403Z,99798.09
2023-04-16T04:59:44.361Z,99794.63
2023-04-16T05:02:46.539Z,99807.84
2023-04-16T05:05:48.378Z,99821.06
2023-04-16T05:08:51.460Z,99821.97
2023-04-16T05:11:53.855Z,99819.34
2023-04-16T05:14:55.516Z,99818.53
2023-04-16T05:17:57.675Z,99813.22
2023-04-16T05:20:59.630Z,99815.03
2023-04-16T05:24:02.677Z,99815.06
2023-04-16T05:27:04.701Z,99803.63
2023-04-16T05:30:07.732Z,99809.84
2023-04-16T05:33:09.421Z,99816.03
2023-04-16T05:36:11.661Z,99819.53
2023-04-16T05:39:16.842Z,99827.50
2023-04-16T05:42:18.562Z,99832.81
2023-04-16T05:45:20.414Z,99833.75
2023-04-16T05:48:22.416Z,99829.31
2023-04-16T05:51:24.127Z,99825.78
2023-04-16T05:54:27.150Z,99831.94
2023-04-16T05:57:28.756Z,99840.78
2023-04-16T06:00:30.614Z,99842.53
2023-04-16T06:03:32.578Z,99831.94
2023-04-16T06:06:34.518Z,99832.84
2023-04-16T06:09:37.783Z,99831.97
2023-04-16T06:12:39.445Z,99831.06
2023-04-16T06:15:41.319Z,99831.09
2023-04-16T06:18:42.987Z,99818.69
2023-04-16T06:21:44.709Z,99825.75
2023-04-16T06:24:48.047Z,99832.84
2023-04-16T06:27:49.726Z,99834.56
2023-04-16T06:30:51.689Z,99826.59
2023-04-16T06:33:53.720Z,99814.22
2023-04-16T06:36:55.934Z,99804.47
2023-04-16T06:39:59.506Z,99811.47
2023-04-16T06:43:01.176Z,99808.81
2023-04-16T06:46:03.012Z,99810.53
2023-04-16T06:49:04.906Z,99806.97
2023-04-16T06:52:06.993Z,99812.22
2023-04-16T06:55:10.448Z,99806.81
2023-04-16T06:58:12.200Z,99808.56
2023-04-16T07:01:14.021Z,99815.53
2023-04-16T07:04:15.812Z,99822.56
2023-04-16T07:07:17.784Z,99816.44
2023-04-16T07:10:20.811Z,99832.34
2023-04-16T07:13:22.684Z,99817.28
2023-04-16T07:16:24.475Z,99815.41
2023-04-16T07:19:26.625Z,99811.78
2023-04-16T07:22:28.290Z,99826.78
2023-04-16T07:25:31.374Z,99817.88
2023-04-16T07:28:33.058Z,99821.31
2023-04-16T07:31:34.826Z,99813.19
2023-04-16T07:34:36.714Z,99823.81
2023-04-16T07:37:38.600Z,99827.28
2023-04-16T07:40:41.779Z,99835.22
2023-04-16T07:43:43.438Z,99823.63
2023-04-16T07:46:47.458Z,99832.44
2023-04-16T07:49:49.399Z,99837.59
2023-04-16T07:52:51.294Z,99834.72
2023-04-16T07:55:54.338Z,99839.81
2023-04-16T07:58:56.283Z,99835.09
2023-04-16T08:01:58.095Z,99842.09
2023-04-16T08:04:59.994Z,99844.81
2023-04-16T08:08:01.768Z,99846.44
2023-04-16T08:11:04.949Z,99842.94
2023-04-16T08:14:06.667Z,99849.03
2023-04-16T08:17:08.352Z,99850.78
2023-04-16T08:20:12.184Z,99860.38
2023-04-16T08:23:16.308Z,99859.41
2023-04-16T08:26:19.491Z,99858.41
2023-04-16T08:29:21.408Z,99857.03
2023-04-16T08:32:23.053Z,99862.38
2023-04-16T08:35:24.850Z,99863.06
2023-04-16T08:38:26.770Z,99865.66
2023-04-16T08:41:32.268Z,99879.91
2023-04-16T08:44:35.828Z,99881.72
2023-04-16T08:47:37.368Z,99884.94
2023-04-16T08:50:41.192Z,99896.06
2023-04-16T08:53:48.590Z,99898.88
2023-04-16T08:56:51.902Z,99912.34
2023-04-16T08:59:55.998Z,99915.00
2023-04-16T09:02:58.841Z,99931.06
2023-04-16T09:06:01.438Z,99924.84
2023-04-16T09:09:06.279Z,99923.00
2023-04-16T09:12:10.505Z,99927.31
2023-04-16T09:15:13.416Z,99927.44
2023-04-16T09:18:15.307Z,99920.22
2023-04-16T09:21:17.350Z,99920.03
2023-04-16T09:24:19.787Z,99924.44
2023-04-16T09:27:25.388Z,99920.72
2023-04-16T09:30:28.424Z,99918.13
2023-04-16T09:33:30.099Z,99914.25
2023-04-16T09:36:32.206Z,99916.78
2023-04-16T09:39:34.201Z,99914.53
2023-04-16T09:42:37.563Z,99909.28
2023-04-16T09:45:50.047Z,99903.19
2023-04-16T09:48:51.916Z,99902.72
2023-04-16T09:51:54.483Z,99904.91
2023-04-16T09:54:56.203Z,99902.59
2023-04-16T09:58:02.533Z,99901.78
2023-04-16T10:01:07.267Z,99903.50
2023-04-16T10:04:09.121Z,99896.91
2023-04-16T10:07:10.867Z,99892.56
2023-04-16T10:10:12.816Z,99895.09
2023-04-16T10:13:15.929Z,99878.63
2023-04-16T10:16:18.163Z,99879.09
2023-04-16T10:19:21.050Z,99887.13
2023-04-16T10:22:22.979Z,99884.72
2023-04-16T10:25:25.151Z,99877.28
2023-04-16T10:28:28.580Z,99872.44
2023-04-16T10:31:31.155Z,99865.16
2023-04-16T10:34:33.328Z,99870.03
2023-04-16T10:37:37.068Z,99868.94
2023-04-16T10:40:38.738Z,99866.47
2023-04-16T10:43:44.710Z,99856.91
2023-04-16T10:46:47.378Z,99861.31
2023-04-16T10:49:49.109Z,99861.09
2023-04-16T10:53:18.595Z,99853.63
2023-04-16T10:56:23.985Z,99855.31
2023-04-16T10:59:31.149Z,99854.09
2023-04-16T11:02:33.089Z,99863.84
2023-04-16T11:05:45.419Z,99858.78
2023-04-16T11:08:54.729Z,99853.84
2023-04-16T11:11:57.727Z,99854.28
2023-04-16T11:15:02.171Z,99860.88
2023-04-16T11:18:04.289Z,99860.91
2023-04-16T11:21:08.620Z,99862.75
2023-04-16T11:24:12.513Z,99853.78
2023-04-16T11:27:14.617Z,99854.09
2023-04-16T11:30:18.828Z,99853.91
2023-04-16T11:33:20.675Z,99846.19
2023-04-16T11:36:22.338Z,99856.75
2023-04-16T11:39:24.124Z,99853.44
2023-04-16T11:42:27.734Z,99853.69
2023-04-16T11:45:32.209Z,99847.00
2023-04-16T11:48:47.159Z,99845.63
2023-04-16T11:51:48.878Z,99842.72
2023-04-16T11:54:50.788Z,99849.72
2023-04-16T11:57:52.727Z,99847.72
2023-04-16T12:00:56.677Z,99842.53
2023-04-16T12:04:02.341Z,99836.34
2023-04-16T12:07:05.845Z,99836.91
2023-04-16T12:10:08.563Z,99839.75
2023-04-16T12:13:11.633Z,99833.16
2023-04-16T12:16:20.502Z,99828.91
2023-04-16T12:19:22.198Z,99827.66
2023-04-16T12:22:30.903Z,99830.63
2023-04-16T12:25:33.044Z,99820.19
2023-04-16T12:28:36.343Z,99819.28
2023-04-16T12:31:39.527Z,99823.31
2023-04-16T12:34:50.854Z,99816.13
2023-04-16T12:37:53.726Z,99814.53
2023-04-16T12:40:55.413Z,99802.94
2023-04-16T12:44:04.199Z,99810.97
2023-04-16T12:47:07.248Z,99799.13
2023-04-16T12:50:09.697Z,99792.25
2023-04-16T12:53:11.711Z,99796.91
2023-04-16T12:56:13.670Z,99799.78
2023-04-16T12:59:15.632Z,99785.00
2023-04-16T13:02:18.939Z,99796.28
2023-04-16T13:05:20.752Z,99791.59
2023-04-16T13:08:32.765Z,99799.78
2023-04-16T13:11:36.539Z,99790.47
2023-04-16T13:14:51.980Z,99776.13
2023-04-16T13:18:28.395Z,99788.41
2023-04-16T13:22:12.499Z,99784.34
2023-04-16T13:25:15.717Z,99778.97
2023-04-16T13:28:18.046Z,99780.84
2023-04-16T13:31:31.263Z,99783.81
2023-04-16T13:34:39.249Z,99784.97
2023-04-16T13:37:51.865Z,99774.66
2023-04-16T13:41:00.090Z,99781.53
2023-04-16T13:44:07.641Z,99776.56
2023-04-16T13:47:15.251Z,99769.50
2023-04-16T13:50:31.862Z,99764.03
2023-04-16T13:53:42.140Z,99767.53
2023-04-16T13:56:45.908Z,99743.25
2023-04-16T13:59:50.162Z,99763.84
2023-04-16T14:03:21.422Z,99757.16
2023-04-16T14:06:31.802Z,99760.72
2023-04-16T14:09:35.569Z,99748.28
2023-04-16T14:12:57.860Z,99749.06
2023-04-16T14:16:04.653Z,99751.38
2023-04-16T14:19:13.429Z,99727.59
2023-04-16T14:22:18.414Z,99749.34
2023-04-16T14:25:21.064Z,99751.03
2023-04-16T14:28:23.075Z,99753.78
2023-04-16T14:31:25.726Z,99748.53
2023-04-16T14:34:28.983Z,99736.91
2023-04-16T14:37:33.546Z,99746.03
2023-04-16T14:40:35.923Z,99741.53
2023-04-16T14:43:50.408Z,99748.53
2023-04-16T14:46:56.651Z,99742.28
2023-04-16T14:50:04.270Z,99743.16
2023-04-16T14:53:14.685Z,99744.41
2023-04-16T14:56:17.858Z,99740.97
2023-04-16T14:59:19.990Z,99735.78
2023-04-16T15:02:21.780Z,99731.53
2023-04-16T15:05:24.995Z,99734.63
2023-04-16T15:08:28.656Z,99739.28
2023-04-16T15:11:30.424Z,99735.72
2023-04-16T15:14:32.347Z,99732.75
2023-04-16T15:17:34.935Z,99720.84
2023-04-16T15:20:37.332Z,99727.09
2023-04-16T15:23:40.765Z,99729.94
2023-04-16T15:26:42.226Z,99733.19
2023-04-16T15:29:44.813Z,99735.13
2023-04-16T15:32:47.651Z,99737.81
2023-04-16T15:35:49.877Z,99739.56
2023-04-16T15:38:54.872Z,99738.81
2023-04-16T15:42:01.565Z,99732.69
2023-04-16T15:45:05.131Z,99737.28
2023-04-16T15:48:07.525Z,99735.16
2023-04-16T15:51:11.050Z,99745.28
2023-04-16T15:54:14.912Z,99739.47
2023-04-16T15:57:16.997Z,99729.78
2023-04-16T16:00:18.863Z,99734.81
2023-04-16T16:03:21.484Z,99738.50
2023-04-16T16:06:23.893Z,99732.31
2023-04-16T16:09:27.168Z,99738.03
2023-04-16T16:12:30.087Z,99740.16
2023-04-16T16:15:34.395Z,99750.94
2023-04-16T16:18:36.675Z,99755.78
2023-04-16T16:21:38.694Z,99745.31
2023-04-16T16:24:42.083Z,99747.66
2023-04-16T16:27:44.289Z,99750.97
2023-04-16T16:30:46.215Z,99745.94
2023-04-16T16:33:47.911Z,99754.25
2023-04-16T16:36:49.779Z,99750.03
2023-04-16T16:39:53.808Z,99752.94
2023-04-16T16:42:57.189Z,99753.75
2023-04-16T16:45:59.094Z,99748.97
2023-04-16T16:49:01.191Z,99745.75
2023-04-16T16:52:03.715Z,99751.38
2023-04-16T16:55:08.698Z,99754.75
2023-04-16T16:58:11.123Z,99755.13
2023-04-16T17:01:13.305Z,99758.00
2023-04-16T17:04:17.166Z,99754.34
2023-04-16T17:07:22.131Z,99759.84
2023-04-16T17:10:26.055Z,99761.91
2023-04-16T17:13:29.872Z,99766.34
2023-04-16T17:16:32.190Z,99767.56
2023-04-16T17:19:35.096Z,99757.66
2023-04-16T17:22:39.256Z,99752.22
2023-04-16T17:25:43.710Z,99755.78
2023-04-16T17:28:47.648Z,99764.00
2023-04-16T17:31:49.906Z,99750.97
2023-04-16T17:34:55.222Z,99759.31
2023-04-16T17:37:58.617Z,99756.91
2023-04-16T17:41:02.556Z,99762.66
2023-04-16T17:44:04.784Z,99761.31
2023-04-16T17:47:08.111Z,99771.41
2023-04-16T17:50:11.638Z,99767.88
2023-04-16T17:53:13.937Z,99774.91
2023-04-16T17:56:20.495Z,99769.75
2023-04-16T17:59:23.039Z,99773.41
2023-04-16T18:02:26.807Z,99782.13
2023-04-16T18:05:31.167Z,99774.44
2023-04-16T18:08:33.715Z,99776.34
2023-04-16T18:11:37.326Z,99773.50
2023-04-16T18:14:39.570Z,99774.56
2023-04-16T18:17:41.772Z,99776.50
2023-04-16T18:20:47.258Z,99769.50
2023-04-16T18:23:49.544Z,99779.28
2023-04-16T18:26:55.305Z,99769.50
2023-04-16T18:29:57.980Z,99783.06
2023-04-16T18:33:26.316Z,99777.94
2023-04-16T18:36:22.822Z,99771.69
2023-04-16T18:39:25.577Z,99765.56
2023-04-16T18:42:29.594Z,99761.22
2023-04-16T18:45:34.439Z,99760.72
2023-04-16T18:48:37.269Z,99760.63
2023-04-16T18:51:39.945Z,99764.28
2023-04-16T18:54:43.648Z,99759.28
2023-04-16T18:57:47.880Z,99768.34
2023-04-16T19:00:53.713Z,99774.69
2023-04-16T19:03:57.257Z,99774.84
2023-04-16T19:07:00.014Z,99772.38
2023-04-16T19:10:01.773Z,99780.41
2023-04-16T19:13:05.301Z,99781.28
2023-04-16T19:16:07.575Z,99776.91
2023-04-16T19:19:13.575Z,99784.03
2023-04-16T19:22:20.940Z,99775.38
2023-04-16T19:25:24.219Z,99780.00
2023-04-16T19:28:28.277Z,99780.97
2023-04-16T19:31:31.534Z,99773.16
2023-04-16T19:34:34.184Z,99772.03
2023-04-16T19:37:36.731Z,99775.47
2023-04-16T19:40:38.468Z,99772.00
2023-04-16T19:43:45.918Z,99773.00
2023-04-16T19:46:48.668Z,99773.19
2023-04-16T19:49:50.563Z,99774.16
2023-04-16T19:52:52.252Z,99772.50
2023-04-16T19:55:55.165Z,99766.41
2023-04-16T19:59:02.283Z,99758.47
2023-04-16T20:02:04.864Z,99765.50
2023-04-16T20:05:07.567Z,99756.59
2023-04-16T20:08:09.985Z,99755.06
2023-04-16T20:11:12.486Z,99755.16
2023-04-16T20:14:16.436Z,99754.19
2023-04-16T20:17:18.821Z,99754.19
2023-04-16T20:20:21.459Z,99745.47
2023-04-16T20:23:24.145Z,99752.56
2023-04-16T20:26:26.161Z,99744.78
2023-04-16T20:29:31.522Z,99750.13
2023-04-16T20:32:33.400Z,99750.72
2023-04-16T20:35:35.640Z,99747.31
2023-04-16T20:38:38.920Z,99746.44
2023-04-16T20:41:41.018Z,99741.34
2023-04-16T20:44:44.116Z,99742.16
2023-04-16T20:47:46.233Z,99741.28
2023-04-16T20:50:48.585Z,99742.22
2023-04-16T20:53:50.808Z,99739.72
2023-04-16T20:56:52.591Z,99740.66
2023-04-16T20:59:55.896Z,99737.97
2023-04-16T21:02:57.766Z,99739.66
2023-04-16T21:06:00.057Z,99729.03
2023-04-16T21:09:01.708Z,99728.16
2023-04-16T21:12:03.682Z,99738.72
2023-04-16T21:15:08.181Z,99736.06
2023-04-16T21:18:10.647Z,99735.28
2023-04-16T21:21:12.289Z,99737.97
2023-04-16T21:24:13.971Z,99730.91
2023-04-16T21:27:15.966Z,99729.13
2023-04-16T21:30:19.279Z,99734.59
2023-04-16T21:33:20.948Z,99741.56
2023-04-16T21:36:22.588Z,99736.31
2023-04-16T21:39:24.539Z,99728.38
2023-04-16T21:42:26.236Z,99731.13
2023-04-16T21:45:30.669Z,99735.72
2023-04-16T21:48:32.715Z,99735.78
2023-04-16T21:51:34.618Z,99725.06
2023-04-16T21:54:36.320Z,99726.03
2023-04-16T21:57:38.281Z,99724.31
2023-04-16T22:00:41.381Z,99719.88
2023-04-16T22:03:43.166Z,99714.63
2023-04-16T22:06:44.845Z,99716.38
2023-04-16T22:09:46.461Z,99704.72
2023-04-16T22:12:48.182Z,99705.72
2023-04-16T22:15:51.354Z,99708.34
2023-04-16T22:18:53.252Z,99712.03
2023-04-16T22:21:54.988Z,99709.38
2023-04-16T22:24:56.693Z,99707.59
2023-04-16T22:27:58.337Z,99701.34
2023-04-16T22:31:01.587Z,99704.00
2023-04-16T22:34:03.817Z,99700.47
2023-04-16T22:37:05.922Z,99704.03
2023-04-16T22:40:08.765Z,99704.03
2023-04-16T22:43:10.714Z,99695.97
2023-04-16T22:46:13.831Z,99695.03
2023-04-16T22:49:15.484Z,99692.56
2023-04-16T22:52:17.125Z,99688.78
2023-04-16T22:55:19.007Z,99684.38
2023-04-16T22:58:21.017Z,99685.31
2023-04-16T23:01:24.457Z,99685.53
2023-04-16T23:04:26.330Z,99679.19
2023-04-16T23:07:28.096Z,99672.97
2023-04-16T23:10:29.797Z,99688.19
2023-04-16T23:13:31.959Z,99679.31
2023-04-16T23:16:35.014Z,99678.34
2023-04-16T23:19:36.930Z,99682.88
2023-04-16T23:22:38.947Z,99669.41
2023-04-16T23:25:41.407Z,99672.88
2023-04-16T23:28:43.231Z,99679.25
2023-04-16T23:31:46.379Z,99667.84
2023-04-16T23:34:48.124Z,99667.72
2023-04-16T23:37:50.107Z,99673.31
2023-04-16T23:40:51.780Z,99665.41
2023-04-16T23:43:53.705Z,99659.88
2023-04-16T23:46:57.049Z,99659.06
2023-04-16T23:49:58.985Z,99661.84
2023-04-16T23:53:00.668Z,99653.88
2023-04-16T23:56:02.421Z,99643.25
2023-04-16T23:59:04.109Z,99648.56
